Terminal Aerodrome Forecast
Issued by NWS

Home | Current Version | Previous Version | Text Only | Print | Product List | Glossary On
Versions: 1 2 3 4 5 6 7 8 9 10 11 12 13 14 15 16 17 18 19 20 21 22 23 24 25 26 27 28 29
000
FTUS44 KMAF 231100
TAFCNM
TAF
KCNM 231131Z 2312/2412 15006KT P6SM FEW008 BKN200
      TEMPO 2312/2314 3SM BR OVC008
     FM231400 15008KT P6SM BKN040 OVC250
      TEMPO 2314/2317 4SM TSRA OVC025CB
     FM231700 20015KT P6SM SCT050 BKN150=

USA.gov is the U.S. government's official web portal to all federal, state and local government web resources and services.